createdAt,value
2018-08-17T00:00:07.508Z,5.50
2018-08-17T00:02:35.820Z,6.00
2018-08-17T00:05:04.097Z,5.70
2018-08-17T00:07:32.500Z,5.23
2018-08-17T00:10:00.747Z,5.40
2018-08-17T00:12:28.996Z,3.90
2018-08-17T00:14:57.240Z,5.03
2018-08-17T00:17:25.426Z,5.10
2018-08-17T00:19:53.639Z,5.90
2018-08-17T00:22:21.832Z,5.53
2018-08-17T00:24:50.022Z,5.57
2018-08-17T00:27:18.244Z,6.27
2018-08-17T00:29:46.430Z,4.57
2018-08-17T00:32:14.672Z,5.50
2018-08-17T00:34:42.841Z,5.73
2018-08-17T00:37:11.052Z,6.43
2018-08-17T00:39:39.260Z,5.77
2018-08-17T00:42:07.477Z,5.40
2018-08-17T00:44:35.728Z,5.33
2018-08-17T00:47:03.942Z,5.93
2018-08-17T00:49:32.134Z,6.50
2018-08-17T00:52:00.340Z,5.50
2018-08-17T00:54:28.504Z,5.37
2018-08-17T00:56:56.692Z,6.10
2018-08-17T00:59:24.905Z,5.70
2018-08-17T01:01:53.127Z,6.07
2018-08-17T01:04:21.353Z,5.20
2018-08-17T01:06:49.512Z,4.67
2018-08-17T01:09:17.693Z,5.30
2018-08-17T01:11:45.867Z,5.27
2018-08-17T01:14:14.064Z,5.20
2018-08-17T01:16:42.344Z,5.53
2018-08-17T01:19:10.528Z,4.80
2018-08-17T01:21:38.721Z,4.60
2018-08-17T01:24:07.386Z,4.90
2018-08-17T01:26:35.604Z,5.20
2018-08-17T01:29:03.904Z,5.30
2018-08-17T01:31:32.073Z,4.30
2018-08-17T01:34:00.256Z,4.17
2018-08-17T01:36:28.421Z,4.83
2018-08-17T01:38:56.618Z,4.60
2018-08-17T01:41:24.813Z,5.27
2018-08-17T01:43:52.973Z,4.60
2018-08-17T01:46:21.196Z,4.53
2018-08-17T01:48:49.361Z,5.00
2018-08-17T01:51:17.550Z,4.87
2018-08-17T01:53:45.777Z,5.00
2018-08-17T01:56:13.942Z,4.43
2018-08-17T01:58:42.204Z,4.90
2018-08-17T02:01:10.382Z,4.63
2018-08-17T02:03:38.609Z,4.30
2018-08-17T02:06:06.986Z,4.50
2018-08-17T02:08:35.189Z,5.00
2018-08-17T02:11:03.376Z,4.50
2018-08-17T02:13:31.590Z,5.23
2018-08-17T02:15:59.777Z,5.40
2018-08-17T02:18:28.029Z,4.90
2018-08-17T02:20:56.253Z,5.40
2018-08-17T02:23:24.418Z,5.60
2018-08-17T02:25:52.621Z,5.70
2018-08-17T02:28:20.776Z,5.20
2018-08-17T02:30:48.970Z,4.97
2018-08-17T02:33:17.149Z,4.60
2018-08-17T02:35:45.313Z,5.30
2018-08-17T02:38:13.510Z,5.40
2018-08-17T02:40:41.685Z,5.67
2018-08-17T02:43:09.917Z,5.50
2018-08-17T02:45:38.102Z,5.07
2018-08-17T02:48:06.279Z,5.07
2018-08-17T02:50:34.481Z,4.77
2018-08-17T02:53:02.660Z,5.10
2018-08-17T02:55:30.849Z,5.43
2018-08-17T02:57:59.169Z,5.43
2018-08-17T03:00:27.373Z,5.27
2018-08-17T03:02:55.566Z,5.83
2018-08-17T03:05:23.736Z,4.70
2018-08-17T03:07:51.949Z,5.57
2018-08-17T03:10:20.181Z,5.30
2018-08-17T03:12:48.333Z,4.80
2018-08-17T03:15:16.565Z,4.90
2018-08-17T03:17:44.732Z,4.77
2018-08-17T03:20:12.933Z,5.40
2018-08-17T03:22:41.129Z,5.13
2018-08-17T03:25:09.283Z,5.53
2018-08-17T03:27:37.490Z,5.07
2018-08-17T03:30:05.921Z,4.27
2018-08-17T03:32:34.129Z,5.23
2018-08-17T03:35:02.325Z,5.77
2018-08-17T03:37:30.488Z,5.03
2018-08-17T03:39:58.703Z,5.50
2018-08-17T03:42:26.869Z,5.90
2018-08-17T03:44:55.092Z,5.30
2018-08-17T03:47:23.305Z,4.83
2018-08-17T03:49:51.457Z,5.43
2018-08-17T03:52:19.712Z,5.07
2018-08-17T03:54:47.917Z,5.00
2018-08-17T03:57:16.116Z,5.43
2018-08-17T03:59:44.356Z,4.70
2018-08-17T04:02:12.516Z,5.03
2018-08-17T04:04:40.717Z,5.33
2018-08-17T04:07:08.965Z,4.93
2018-08-17T04:09:37.164Z,5.77
2018-08-17T04:12:05.356Z,5.10
2018-08-17T04:14:33.528Z,4.93
2018-08-17T04:17:01.769Z,5.20
2018-08-17T04:19:29.938Z,4.63
2018-08-17T04:21:58.156Z,7.07
2018-08-17T04:24:26.352Z,5.60
2018-08-17T04:26:54.522Z,4.47
2018-08-17T04:29:22.706Z,6.00
2018-08-17T04:31:50.869Z,5.30
2018-08-17T04:34:19.090Z,4.63
2018-08-17T04:36:47.293Z,5.37
2018-08-17T04:39:15.464Z,5.20
2018-08-17T04:41:43.648Z,4.80
2018-08-17T04:44:11.817Z,5.47
2018-08-17T04:46:40.009Z,5.20
2018-08-17T04:49:08.275Z,5.10
2018-08-17T04:51:36.433Z,5.27
2018-08-17T04:54:04.694Z,6.17
2018-08-17T04:56:32.893Z,5.17
2018-08-17T04:59:01.185Z,5.20
2018-08-17T05:01:29.392Z,4.87
2018-08-17T05:03:57.557Z,5.17
2018-08-17T05:06:25.765Z,4.97
2018-08-17T05:08:53.992Z,3.90
2018-08-17T05:11:22.141Z,4.50
2018-08-17T05:13:50.345Z,4.57
2018-08-17T05:16:18.581Z,4.00
2018-08-17T05:18:46.798Z,3.30
2018-08-17T05:21:15.007Z,4.77
2018-08-17T05:23:43.190Z,4.00
2018-08-17T05:26:11.389Z,4.40
2018-08-17T05:28:39.549Z,4.87
2018-08-17T05:31:07.782Z,4.30
2018-08-17T05:33:35.976Z,4.90
2018-08-17T05:36:04.237Z,4.40
2018-08-17T05:38:32.449Z,4.80
2018-08-17T05:41:00.609Z,5.03
2018-08-17T05:43:28.850Z,4.70
2018-08-17T05:45:57.134Z,4.90
2018-08-17T05:48:25.357Z,4.80
2018-08-17T05:50:53.556Z,4.30
2018-08-17T05:53:21.752Z,5.70
2018-08-17T05:55:49.955Z,5.30
2018-08-17T05:58:18.113Z,5.80
2018-08-17T06:00:46.433Z,5.10
2018-08-17T06:03:14.752Z,5.57
2018-08-17T06:05:43.014Z,5.23
2018-08-17T06:08:11.305Z,5.50
2018-08-17T06:10:39.489Z,4.60
2018-08-17T06:13:07.752Z,5.23
2018-08-17T06:15:35.958Z,5.10
2018-08-17T06:18:04.152Z,5.23
2018-08-17T06:20:32.337Z,5.23
2018-08-17T06:23:00.557Z,5.70
2018-08-17T06:25:28.795Z,5.80
2018-08-17T06:27:56.977Z,5.43
2018-08-17T06:30:25.190Z,5.10
2018-08-17T06:32:53.480Z,5.33
2018-08-17T06:35:21.683Z,5.30
2018-08-17T06:37:49.959Z,5.63
2018-08-17T06:40:18.190Z,5.50
2018-08-17T06:42:46.426Z,5.17
2018-08-17T06:45:14.693Z,5.07
2018-08-17T06:47:42.848Z,4.07
2018-08-17T06:50:11.660Z,4.70
2018-08-17T06:52:40.937Z,5.30
2018-08-17T06:55:10.489Z,4.47
2018-08-17T06:57:39.159Z,5.70
2018-08-17T07:00:10.648Z,5.07
2018-08-17T07:02:38.937Z,6.40
2018-08-17T07:05:07.493Z,6.20
2018-08-17T07:07:35.740Z,5.70
2018-08-17T07:10:04.738Z,5.80
2018-08-17T07:12:33.037Z,6.20
2018-08-17T07:15:01.265Z,6.30
2018-08-17T07:17:29.463Z,5.27
2018-08-17T07:19:57.649Z,5.30
2018-08-17T07:22:25.837Z,5.43
2018-08-17T07:24:54.030Z,5.97
2018-08-17T07:27:22.212Z,4.90
2018-08-17T07:29:50.437Z,5.60
2018-08-17T07:32:18.662Z,5.17
2018-08-17T07:34:46.898Z,5.10
2018-08-17T07:37:15.132Z,6.23
2018-08-17T07:39:43.291Z,7.27
2018-08-17T07:42:11.523Z,6.30
2018-08-17T07:44:39.793Z,6.00
2018-08-17T07:47:08.188Z,5.67
2018-08-17T07:49:36.409Z,5.10
2018-08-17T07:52:04.745Z,6.10
2018-08-17T07:54:32.949Z,5.40
2018-08-17T07:57:01.152Z,4.83
2018-08-17T07:59:29.342Z,5.93
2018-08-17T08:01:57.505Z,5.47
2018-08-17T08:04:25.717Z,5.30
2018-08-17T08:06:53.925Z,5.20
2018-08-17T08:09:22.132Z,5.40
2018-08-17T08:11:50.369Z,5.10
2018-08-17T08:14:18.521Z,5.33
2018-08-17T08:16:46.734Z,5.00
2018-08-17T08:19:15.418Z,4.47
2018-08-17T08:21:47.381Z,5.90
2018-08-17T08:24:15.926Z,5.23
2018-08-17T08:26:44.176Z,4.20
2018-08-17T08:29:12.509Z,3.97
2018-08-17T08:31:40.873Z,4.80
2018-08-17T08:34:09.068Z,4.60
2018-08-17T08:36:37.302Z,5.10
2018-08-17T08:39:10.845Z,5.03
2018-08-17T08:41:39.037Z,4.67
2018-08-17T08:44:07.271Z,4.13
2018-08-17T08:46:36.051Z,4.37
2018-08-17T08:49:04.562Z,4.93
2018-08-17T08:51:32.996Z,4.77
2018-08-17T08:54:01.510Z,4.40
2018-08-17T08:56:29.704Z,4.30
2018-08-17T08:58:57.896Z,4.40
2018-08-17T09:01:26.106Z,5.20
2018-08-17T09:03:54.272Z,5.30
2018-08-17T09:06:23.056Z,4.27
2018-08-17T09:08:51.273Z,3.93
2018-08-17T09:11:19.464Z,4.00
2018-08-17T09:13:47.670Z,4.37
2018-08-17T09:16:16.177Z,5.37
2018-08-17T09:18:44.391Z,4.83
2018-08-17T09:21:12.566Z,3.87
2018-08-17T09:23:40.801Z,4.70
2018-08-17T09:26:08.964Z,6.10
2018-08-17T09:28:37.176Z,5.40
2018-08-17T09:31:05.896Z,5.20
2018-08-17T09:33:34.072Z,6.43
2018-08-17T09:36:02.318Z,6.20
2018-08-17T09:38:30.501Z,5.10
2018-08-17T09:40:58.737Z,5.13
2018-08-17T09:43:26.929Z,4.93
2018-08-17T09:45:55.089Z,3.73
2018-08-17T09:48:23.328Z,3.30
2018-08-17T09:50:51.492Z,3.07
2018-08-17T09:53:19.676Z,3.80
2018-08-17T09:55:47.865Z,2.80
2018-08-17T09:58:16.076Z,3.10
2018-08-17T10:00:49.732Z,2.60
2018-08-17T10:03:23.415Z,3.77
2018-08-17T10:05:56.048Z,3.57
2018-08-17T10:08:29.824Z,3.23
2018-08-17T10:10:58.024Z,3.20
2018-08-17T10:13:26.185Z,2.97
2018-08-17T10:15:54.486Z,3.27
2018-08-17T10:18:29.793Z,3.47
2018-08-17T10:20:58.171Z,2.53
2018-08-17T10:23:26.245Z,2.97
2018-08-17T10:25:54.433Z,2.90
2018-08-17T10:28:22.689Z,2.30
2018-08-17T10:30:50.854Z,3.03
2018-08-17T10:33:19.097Z,2.77
2018-08-17T10:35:47.297Z,2.80
2018-08-17T10:38:15.488Z,2.67
2018-08-17T10:40:43.723Z,3.00
2018-08-17T10:43:11.865Z,3.13
2018-08-17T10:45:40.058Z,3.13
2018-08-17T10:48:08.270Z,2.60
2018-08-17T10:50:36.430Z,2.63
2018-08-17T10:53:05.156Z,2.20
2018-08-17T10:55:40.959Z,2.30
2018-08-17T10:58:10.925Z,3.00
2018-08-17T11:00:39.144Z,3.03
2018-08-17T11:03:07.541Z,2.67
2018-08-17T11:05:36.317Z,2.57
2018-08-17T11:08:04.625Z,2.47
2018-08-17T11:10:32.821Z,2.20
2018-08-17T11:13:00.960Z,2.63
2018-08-17T11:15:29.141Z,2.83
2018-08-17T11:17:57.452Z,2.33
2018-08-17T11:20:25.652Z,2.90
2018-08-17T11:22:53.914Z,2.70
2018-08-17T11:25:22.138Z,2.60
2018-08-17T11:27:50.836Z,2.50
2018-08-17T11:30:19.093Z,2.37
2018-08-17T11:32:47.248Z,2.40
2018-08-17T11:35:15.473Z,2.93
2018-08-17T11:37:43.645Z,3.30
2018-08-17T11:40:12.607Z,3.50
2018-08-17T11:42:43.378Z,2.93
2018-08-17T11:45:14.868Z,3.47
2018-08-17T11:47:43.730Z,3.17
2018-08-17T11:50:13.555Z,3.13
2018-08-17T11:53:13.884Z,2.60
2018-08-17T11:55:42.072Z,2.73
2018-08-17T11:58:10.392Z,2.33
2018-08-17T12:00:38.544Z,2.80
2018-08-17T12:03:07.815Z,2.63
2018-08-17T12:05:36.000Z,2.97
2018-08-17T12:08:04.341Z,2.27
2018-08-17T12:10:32.666Z,2.87
2018-08-17T12:13:20.757Z,2.13
2018-08-17T12:15:54.347Z,3.40
2018-08-17T12:18:22.561Z,3.10
2018-08-17T12:20:50.824Z,2.43
2018-08-17T12:23:18.993Z,2.40
2018-08-17T12:25:57.538Z,2.17
2018-08-17T12:28:27.109Z,3.13
2018-08-17T12:30:55.638Z,2.80
2018-08-17T12:33:23.844Z,3.50
2018-08-17T12:35:52.076Z,2.70
2018-08-17T12:38:20.297Z,2.70
2018-08-17T12:40:49.984Z,2.90
2018-08-17T12:43:19.432Z,2.13
2018-08-17T12:45:47.630Z,2.43
2018-08-17T12:48:16.588Z,3.20
2018-08-17T12:50:45.325Z,2.30
2018-08-17T12:53:13.885Z,2.40
2018-08-17T12:55:42.201Z,2.67
2018-08-17T12:58:10.473Z,2.43
2018-08-17T13:00:38.986Z,2.70
2018-08-17T13:03:07.329Z,3.10
2018-08-17T13:05:35.791Z,3.00
2018-08-17T13:08:04.280Z,2.40
2018-08-17T13:10:32.432Z,2.43
2018-08-17T13:13:06.265Z,2.43
2018-08-17T13:15:34.904Z,3.33
2018-08-17T13:18:09.912Z,2.33
2018-08-17T13:20:38.520Z,2.10
2018-08-17T13:23:06.743Z,2.13
2018-08-17T13:25:34.929Z,2.30
2018-08-17T13:28:03.085Z,2.30
2018-08-17T13:30:31.273Z,2.43
2018-08-17T13:32:59.433Z,2.20
2018-08-17T13:35:27.625Z,2.10
2018-08-17T13:37:55.804Z,2.50
2018-08-17T13:40:24.012Z,2.77
2018-08-17T13:42:52.215Z,3.03
2018-08-17T13:45:20.413Z,2.43
2018-08-17T13:47:48.640Z,2.30
2018-08-17T13:50:16.921Z,2.20
2018-08-17T13:52:45.122Z,2.30
2018-08-17T13:55:13.416Z,2.30
2018-08-17T13:57:41.629Z,2.20
2018-08-17T14:00:10.673Z,2.13
2018-08-17T14:02:38.826Z,1.67
2018-08-17T14:05:08.120Z,2.17
2018-08-17T14:07:36.401Z,2.00
2018-08-17T14:10:05.487Z,2.47
2018-08-17T14:12:33.724Z,2.00
2018-08-17T14:15:01.990Z,2.33
2018-08-17T14:17:30.224Z,2.30
2018-08-17T14:19:58.421Z,1.77
2018-08-17T14:22:26.636Z,2.40
2018-08-17T14:24:54.808Z,2.13
2018-08-17T14:27:23.017Z,2.10
2018-08-17T14:29:51.208Z,2.10
2018-08-17T14:32:19.388Z,2.63
2018-08-17T14:34:47.578Z,1.67
2018-08-17T14:37:15.737Z,1.80
2018-08-17T14:39:43.921Z,2.00
2018-08-17T14:42:12.114Z,1.60
2018-08-17T14:44:40.321Z,2.10
2018-08-17T14:47:08.611Z,2.00
2018-08-17T14:49:36.794Z,2.10
2018-08-17T14:52:05.233Z,1.70
2018-08-17T14:54:33.388Z,2.00
2018-08-17T14:57:01.578Z,2.10
2018-08-17T14:59:29.785Z,1.60
2018-08-17T15:01:57.965Z,1.57
2018-08-17T15:04:26.201Z,1.90
2018-08-17T15:06:54.386Z,1.97
2018-08-17T15:09:22.629Z,1.70
2018-08-17T15:11:50.994Z,1.90
2018-08-17T15:14:19.161Z,1.70
2018-08-17T15:16:47.385Z,1.67
2018-08-17T15:19:15.549Z,1.73
2018-08-17T15:21:43.740Z,1.70
2018-08-17T15:24:11.908Z,1.97
2018-08-17T15:26:40.142Z,2.00
2018-08-17T15:29:08.348Z,1.87
2018-08-17T15:31:36.521Z,2.23
2018-08-17T15:34:04.753Z,2.00
2018-08-17T15:36:32.944Z,2.00
2018-08-17T15:39:01.164Z,2.03
2018-08-17T15:41:29.479Z,1.60
2018-08-17T15:43:57.647Z,2.67
2018-08-17T15:46:25.829Z,1.70
2018-08-17T15:48:55.092Z,2.07
2018-08-17T15:51:23.329Z,1.90
2018-08-17T15:53:51.704Z,2.20
2018-08-17T15:56:20.033Z,2.40
2018-08-17T15:58:48.376Z,2.00
2018-08-17T16:01:16.677Z,2.43
2018-08-17T16:03:44.902Z,2.20
2018-08-17T16:06:13.080Z,1.83
2018-08-17T16:08:41.344Z,2.00
2018-08-17T16:11:09.929Z,2.10
2018-08-17T16:13:38.115Z,2.10
2018-08-17T16:16:06.471Z,2.53
2018-08-17T16:18:35.027Z,2.20
2018-08-17T16:21:03.301Z,2.20
2018-08-17T16:23:31.516Z,2.33
2018-08-17T16:25:59.790Z,2.07
2018-08-17T16:28:27.973Z,1.73
2018-08-17T16:30:56.192Z,2.00
2018-08-17T16:33:24.354Z,2.30
2018-08-17T16:35:52.568Z,2.40
2018-08-17T16:38:20.788Z,1.90
2018-08-17T16:40:50.977Z,1.87
2018-08-17T16:43:25.593Z,2.20
2018-08-17T16:45:53.833Z,2.27
2018-08-17T16:48:22.174Z,2.10
2018-08-17T16:50:50.453Z,2.50
2018-08-17T16:53:18.640Z,2.30
2018-08-17T16:55:46.794Z,2.40
2018-08-17T16:58:15.064Z,2.73
2018-08-17T17:00:43.347Z,2.20
2018-08-17T17:03:11.487Z,2.20
2018-08-17T17:05:39.669Z,3.13
2018-08-17T17:08:07.832Z,2.90
2018-08-17T17:10:36.078Z,2.63
2018-08-17T17:13:04.244Z,2.60
2018-08-17T17:15:32.447Z,3.07
2018-08-17T17:18:05.966Z,1.87
2018-08-17T17:20:35.099Z,2.50
2018-08-17T17:23:04.724Z,2.37
2018-08-17T17:25:32.953Z,2.40
2018-08-17T17:28:01.165Z,2.90
2018-08-17T17:30:52.182Z,2.27
2018-08-17T17:33:20.904Z,3.20
2018-08-17T17:35:49.226Z,3.53
2018-08-17T17:38:17.470Z,2.97
2018-08-17T17:40:45.629Z,2.50
2018-08-17T17:43:13.868Z,2.70
2018-08-17T17:45:42.065Z,2.90
2018-08-17T17:48:10.409Z,2.30
2018-08-17T17:50:38.648Z,2.70
2018-08-17T17:53:06.988Z,2.37
2018-08-17T17:55:41.881Z,2.50
2018-08-17T17:58:10.257Z,2.73
2018-08-17T18:00:38.488Z,2.63
2018-08-17T18:03:07.196Z,2.80
2018-08-17T18:05:35.416Z,2.73
2018-08-17T18:08:09.118Z,2.97
2018-08-17T18:10:37.348Z,3.83
2018-08-17T18:13:05.600Z,2.80
2018-08-17T18:15:33.793Z,3.60
2018-08-17T18:18:02.085Z,2.47
2018-08-17T18:20:30.322Z,3.57
2018-08-17T18:22:58.516Z,3.20
2018-08-17T18:25:26.733Z,2.70
2018-08-17T18:27:54.909Z,3.40
2018-08-17T18:30:23.113Z,3.03
2018-08-17T18:32:51.303Z,2.90
2018-08-17T18:35:19.594Z,3.00
2018-08-17T18:37:47.804Z,3.53
2018-08-17T18:40:16.049Z,4.30
2018-08-17T18:42:44.236Z,3.60
2018-08-17T18:45:12.476Z,3.70
2018-08-17T18:47:40.676Z,3.10
2018-08-17T18:50:08.999Z,3.97
2018-08-17T18:52:37.209Z,4.50
2018-08-17T18:55:05.635Z,3.37
2018-08-17T18:57:33.835Z,4.73
2018-08-17T19:00:02.215Z,3.50
2018-08-17T19:02:30.420Z,3.40
2018-08-17T19:04:58.612Z,3.10
2018-08-17T19:07:26.774Z,2.90
2018-08-17T19:09:55.047Z,3.47
2018-08-17T19:12:23.280Z,3.63
2018-08-17T19:14:51.889Z,3.93
2018-08-17T19:17:25.453Z,3.10
2018-08-17T19:19:53.667Z,3.30
2018-08-17T19:22:22.109Z,3.70
2018-08-17T19:24:51.489Z,3.50
2018-08-17T19:27:25.988Z,3.80
2018-08-17T19:29:54.553Z,4.00
2018-08-17T19:32:23.112Z,4.23
2018-08-17T19:34:51.245Z,4.20
2018-08-17T19:37:19.412Z,3.33
2018-08-17T19:39:47.804Z,3.80
2018-08-17T19:42:16.174Z,3.80
2018-08-17T19:44:44.380Z,5.17
2018-08-17T19:47:12.587Z,4.33
2018-08-17T19:49:40.788Z,4.30
2018-08-17T19:52:09.013Z,4.20
2018-08-17T19:54:37.176Z,3.93
2018-08-17T19:57:05.565Z,4.30
2018-08-17T19:59:34.651Z,4.03
2018-08-17T20:02:02.948Z,5.10
2018-08-17T20:04:31.140Z,4.20
2018-08-17T20:06:59.665Z,3.87
2018-08-17T20:09:27.898Z,4.33
2018-08-17T20:11:56.044Z,4.83
2018-08-17T20:14:24.372Z,4.67
2018-08-17T20:16:52.526Z,3.77
2018-08-17T20:19:20.845Z,3.90
2018-08-17T20:21:49.012Z,4.07
2018-08-17T20:24:17.222Z,4.77
2018-08-17T20:26:45.833Z,5.60
2018-08-17T20:29:13.876Z,6.13
2018-08-17T20:31:43.895Z,5.90
2018-08-17T20:34:12.060Z,5.83
2018-08-17T20:36:40.429Z,5.10
2018-08-17T20:39:11.857Z,4.93
2018-08-17T20:41:40.118Z,4.60
2018-08-17T20:44:08.820Z,4.87
2018-08-17T20:46:37.033Z,5.10
2018-08-17T20:49:05.365Z,4.90
2018-08-17T20:51:33.643Z,4.60
2018-08-17T20:54:02.894Z,4.97
2018-08-17T20:56:31.052Z,4.90
2018-08-17T20:58:59.255Z,4.80
2018-08-17T21:01:27.433Z,5.37
2018-08-17T21:03:55.616Z,4.40
2018-08-17T21:06:23.825Z,4.30
2018-08-17T21:08:52.180Z,5.30
2018-08-17T21:11:20.363Z,4.30
2018-08-17T21:13:48.674Z,4.83
2018-08-17T21:16:16.840Z,4.97
2018-08-17T21:18:45.070Z,5.13
2018-08-17T21:21:13.277Z,5.30
2018-08-17T21:23:41.435Z,4.40
2018-08-17T21:26:09.629Z,5.20
2018-08-17T21:28:37.780Z,5.27
2018-08-17T21:31:06.025Z,5.33
2018-08-17T21:33:34.481Z,5.33
2018-08-17T21:36:02.661Z,5.37
2018-08-17T21:38:30.850Z,5.00
2018-08-17T21:40:58.997Z,4.70
2018-08-17T21:43:27.185Z,5.30
2018-08-17T21:46:03.563Z,5.90
2018-08-17T21:48:32.313Z,6.00
2018-08-17T21:51:00.853Z,5.80
2018-08-17T21:53:29.072Z,6.17
2018-08-17T21:55:57.245Z,5.47
2018-08-17T21:58:25.445Z,5.60
2018-08-17T22:00:53.617Z,5.17
2018-08-17T22:03:31.757Z,6.20
2018-08-17T22:06:00.000Z,5.37
2018-08-17T22:08:28.209Z,4.90
2018-08-17T22:10:56.444Z,5.87
2018-08-17T22:13:35.449Z,6.67
2018-08-17T22:16:04.009Z,5.77
2018-08-17T22:18:32.792Z,6.67
2018-08-17T22:21:00.964Z,7.00
2018-08-17T22:23:30.242Z,6.43
2018-08-17T22:25:58.536Z,6.30
2018-08-17T22:28:26.770Z,6.47
2018-08-17T22:30:54.981Z,6.53
2018-08-17T22:33:23.124Z,6.83
2018-08-17T22:35:51.344Z,5.73
2018-08-17T22:38:19.560Z,6.10
2018-08-17T22:40:47.737Z,6.20
2018-08-17T22:43:15.881Z,7.10
2018-08-17T22:45:44.093Z,7.13
2018-08-17T22:48:12.327Z,6.23
2018-08-17T22:50:40.460Z,6.67
2018-08-17T22:53:08.681Z,7.00
2018-08-17T22:55:36.847Z,6.23
2018-08-17T22:58:05.044Z,5.30
2018-08-17T23:00:33.214Z,6.17
2018-08-17T23:03:02.024Z,7.60
2018-08-17T23:05:33.595Z,6.20
2018-08-17T23:08:01.818Z,5.73
2018-08-17T23:10:30.022Z,5.83
2018-08-17T23:12:58.561Z,6.03
2018-08-17T23:15:26.777Z,6.00
2018-08-17T23:17:56.981Z,5.83
2018-08-17T23:20:30.584Z,5.27
2018-08-17T23:23:00.017Z,5.40
2018-08-17T23:25:28.245Z,5.80
2018-08-17T23:27:56.519Z,5.57
2018-08-17T23:30:24.805Z,5.60
2018-08-17T23:32:53.033Z,5.30
2018-08-17T23:35:21.261Z,4.87
2018-08-17T23:37:49.503Z,5.70
2018-08-17T23:40:17.726Z,5.13
2018-08-17T23:42:45.967Z,5.23
2018-08-17T23:45:15.385Z,4.80
2018-08-17T23:47:46.508Z,5.20
2018-08-17T23:50:15.372Z,4.93
2018-08-17T23:52:43.657Z,5.57
2018-08-17T23:55:14.921Z,5.27
2018-08-17T23:57:43.089Z,5.00
